Maspalomas — EA3539 — position and weather

sailwx.info

Track history (hours):
 
Tides and Currents Weather Stations Pressure Air Temp Water Temp Dewpoint Dewpoint Depression Visibility Wind Speed Wind Dir Waves Ship Positions

Maspalomas

Last reported at 2018-Jan-19 20:41 UTC. Time now 2018-Jan-21 00:47 UTC.
Position N 28°06' W 015°24'.

Length 23 m.

Type: Port tender. MMSI: 224060250.

Date/timePositionNaut miles runAvg speedWind from/ knotsBaromVisibWave heightAir tempDewpointWater temp
2018-Jan-19 20:41N 28°06' W 015°24'0 0.0
2018-Jan-19 20:27N 28°06' W 015°24'0 0.0
2018-Jan-19 20:00N 28°06' W 015°24'0 0.0
2018-Jan-19 19:28N 28°06' W 015°24'0 0.0
2018-Jan-19 18:59N 28°06' W 015°24'0 0.1
2018-Jan-19 18:28N 28°06' W 015°24'3 0.6
2018-Jan-19 12:40N 28°09' W 015°26'0 0.0
2018-Jan-19 12:28N 28°09' W 015°26'0 0.0
2018-Jan-19 11:58N 28°09' W 015°26'0 0.0
2018-Jan-19 11:13N 28°09' W 015°26'0 0.0
2018-Jan-19 10:58N 28°09' W 015°26'0 0.0
2018-Jan-19 10:28N 28°09' W 015°26'0 0.0
2018-Jan-19 09:58N 28°09' W 015°26'2 3.4
2018-Jan-19 09:25N 28°07' W 015°24'1 1.8
2018-Jan-19 08:55N 28°08' W 015°25'  
2018-Jan-11 21:49N 28°09' W 015°26'2 7.0
2018-Jan-11 21:30N 28°07' W 015°24'0 0.0
2018-Jan-11 20:54N 28°07' W 015°24'0 0.0
2018-Jan-11 20:30N 28°07' W 015°24'0 0.0
2018-Jan-11 19:53N 28°07' W 015°24'0 0.1
2018-Jan-11 19:19N 28°07' W 015°24'0 0.1
2018-Jan-11 18:46N 28°07' W 015°24'1 5.1
2018-Jan-11 18:30N 28°08' W 015°25'1 0.3
2018-Jan-11 14:31N 28°09' W 015°26'0 0.0
2018-Jan-11 14:30N 28°09' W 015°26'2 2.4
2018-Jan-11 13:48N 28°08' W 015°24'0 0.0
2018-Jan-11 13:25N 28°08' W 015°24'0 0.0
2018-Jan-11 12:54N 28°08' W 015°24'0 0.0
2018-Jan-11 12:27N 28°08' W 015°24'0 0.0
2018-Jan-11 11:56N 28°08' W 015°24'0 0.0
2018-Jan-11 11:12N 28°08' W 015°24'0 0.1
2018-Jan-11 10:57N 28°08' W 015°24'0 0.0
2018-Jan-11 10:29N 28°08' W 015°24'0 0.0
2018-Jan-11 09:52N 28°08' W 015°24'0 0.1
2018-Jan-11 09:28N 28°08' W 015°24'0 0.0
2018-Jan-11 08:28N 28°08' W 015°24'0 0.0
2018-Jan-11 07:55N 28°08' W 015°24'0 0.0
2018-Jan-11 07:25N 28°08' W 015°24'0 0.0
2018-Jan-11 06:58N 28°08' W 015°24'1 1.6
2018-Jan-11 06:29N 28°07' W 015°24'2 2.9
2018-Jan-11 05:51N 28°09' W 015°26'0 0.0
2018-Jan-10 12:27N 28°09' W 015°26'3 6.5
2018-Jan-10 11:57N 28°06' W 015°24'0 0.0
2018-Jan-10 11:27N 28°06' W 015°24'0 0.0
2018-Jan-10 10:57N 28°06' W 015°24'0 0.0
2018-Jan-10 10:30N 28°06' W 015°24'0 0.1
2018-Jan-10 09:58N 28°06' W 015°24'  
Track history (hours):
 
Tides and Currents Weather Stations Pressure Air Temp Water Temp Dewpoint Dewpoint Depression Visibility Wind Speed Wind Dir Waves Ship Positions

Maspalomas

Last reported at 2018-Jan-19 20:41 UTC. Time now 2018-Jan-21 00:47 UTC.
Position N 28°06' W 015°24'.

Length 23 m.

Type: Port tender. MMSI: 224060250.

Date/timePositionNaut miles runAvg speedWind from/ knotsBaromVisibWave heightAir tempDewpointWater temp
2018-Jan-19 20:41N 28°06' W 015°24'0 0.0
2018-Jan-19 20:27N 28°06' W 015°24'0 0.0
2018-Jan-19 20:00N 28°06' W 015°24'0 0.0
2018-Jan-19 19:28N 28°06' W 015°24'0 0.0
2018-Jan-19 18:59N 28°06' W 015°24'0 0.1
2018-Jan-19 18:28N 28°06' W 015°24'3 0.6
2018-Jan-19 12:40N 28°09' W 015°26'0 0.0
2018-Jan-19 12:28N 28°09' W 015°26'0 0.0
2018-Jan-19 11:58N 28°09' W 015°26'0 0.0
2018-Jan-19 11:13N 28°09' W 015°26'0 0.0
2018-Jan-19 10:58N 28°09' W 015°26'0 0.0
2018-Jan-19 10:28N 28°09' W 015°26'0 0.0
2018-Jan-19 09:58N 28°09' W 015°26'2 3.4
2018-Jan-19 09:25N 28°07' W 015°24'1 1.8
2018-Jan-19 08:55N 28°08' W 015°25'  
2018-Jan-11 21:49N 28°09' W 015°26'2 7.0
2018-Jan-11 21:30N 28°07' W 015°24'0 0.0
2018-Jan-11 20:54N 28°07' W 015°24'0 0.0
2018-Jan-11 20:30N 28°07' W 015°24'0 0.0
2018-Jan-11 19:53N 28°07' W 015°24'0 0.1
2018-Jan-11 19:19N 28°07' W 015°24'0 0.1
2018-Jan-11 18:46N 28°07' W 015°24'1 5.1
2018-Jan-11 18:30N 28°08' W 015°25'1 0.3
2018-Jan-11 14:31N 28°09' W 015°26'0 0.0
2018-Jan-11 14:30N 28°09' W 015°26'2 2.4
2018-Jan-11 13:48N 28°08' W 015°24'0 0.0
2018-Jan-11 13:25N 28°08' W 015°24'0 0.0
2018-Jan-11 12:54N 28°08' W 015°24'0 0.0
2018-Jan-11 12:27N 28°08' W 015°24'0 0.0
2018-Jan-11 11:56N 28°08' W 015°24'0 0.0
2018-Jan-11 11:12N 28°08' W 015°24'0 0.1
2018-Jan-11 10:57N 28°08' W 015°24'0 0.0
2018-Jan-11 10:29N 28°08' W 015°24'0 0.0
2018-Jan-11 09:52N 28°08' W 015°24'0 0.1
2018-Jan-11 09:28N 28°08' W 015°24'0 0.0
2018-Jan-11 08:28N 28°08' W 015°24'0 0.0
2018-Jan-11 07:55N 28°08' W 015°24'0 0.0
2018-Jan-11 07:25N 28°08' W 015°24'0 0.0
2018-Jan-11 06:58N 28°08' W 015°24'1 1.6
2018-Jan-11 06:29N 28°07' W 015°24'2 2.9
2018-Jan-11 05:51N 28°09' W 015°26'0 0.0
2018-Jan-10 12:27N 28°09' W 015°26'3 6.5
2018-Jan-10 11:57N 28°06' W 015°24'0 0.0
2018-Jan-10 11:27N 28°06' W 015°24'0 0.0
2018-Jan-10 10:57N 28°06' W 015°24'0 0.0
2018-Jan-10 10:30N 28°06' W 015°24'0 0.1
2018-Jan-10 09:58N 28°06' W 015°24'  

Dump ship's entire track history